sensor_id;sensor_type;location;lat;lon;timestamp;P1;durP1;ratioP1;P2;durP2;ratioP2
18576;SDS011;9418;52.694;13.294;2023-02-11T00:00:39;47.80;;;28.80;;
18576;SDS011;9418;52.694;13.294;2023-02-11T00:03:06;44.20;;;27.83;;
18576;SDS011;9418;52.694;13.294;2023-02-11T00:05:33;49.47;;;30.90;;
18576;SDS011;9418;52.694;13.294;2023-02-11T00:08:01;42.90;;;28.70;;
18576;SDS011;9418;52.694;13.294;2023-02-11T00:10:27;47.40;;;30.83;;
18576;SDS011;9418;52.694;13.294;2023-02-11T00:12:54;45.10;;;29.03;;
18576;SDS011;9418;52.694;13.294;2023-02-11T00:15:21;41.43;;;27.53;;
18576;SDS011;9418;52.694;13.294;2023-02-11T00:17:47;47.40;;;29.43;;
18576;SDS011;9418;52.694;13.294;2023-02-11T00:20:14;47.07;;;28.53;;
18576;SDS011;9418;52.694;13.294;2023-02-11T00:22:41;42.80;;;29.00;;
18576;SDS011;9418;52.694;13.294;2023-02-11T00:25:09;41.13;;;28.87;;
18576;SDS011;9418;52.694;13.294;2023-02-11T00:27:35;43.37;;;29.20;;
18576;SDS011;9418;52.694;13.294;2023-02-11T00:30:02;46.47;;;30.53;;
18576;SDS011;9418;52.694;13.294;2023-02-11T00:32:30;45.03;;;29.97;;
18576;SDS011;9418;52.694;13.294;2023-02-11T00:34:56;45.17;;;30.37;;
18576;SDS011;9418;52.694;13.294;2023-02-11T00:37:23;40.43;;;28.03;;
18576;SDS011;9418;52.694;13.294;2023-02-11T00:39:49;47.40;;;29.27;;
18576;SDS011;9418;52.694;13.294;2023-02-11T00:42:17;44.37;;;29.77;;
18576;SDS011;9418;52.694;13.294;2023-02-11T00:44:44;45.70;;;28.97;;
18576;SDS011;9418;52.694;13.294;2023-02-11T00:47:10;44.07;;;29.10;;
18576;SDS011;9418;52.694;13.294;2023-02-11T00:49:37;44.10;;;28.60;;
18576;SDS011;9418;52.694;13.294;2023-02-11T00:52:04;41.17;;;29.07;;
18576;SDS011;9418;52.694;13.294;2023-02-11T00:54:31;50.40;;;31.37;;
18576;SDS011;9418;52.694;13.294;2023-02-11T00:56:57;44.40;;;29.23;;
18576;SDS011;9418;52.694;13.294;2023-02-11T00:59:25;46.00;;;28.30;;
18576;SDS011;9418;52.694;13.294;2023-02-11T01:01:52;44.37;;;28.87;;
18576;SDS011;9418;52.694;13.294;2023-02-11T01:04:18;44.50;;;30.40;;
18576;SDS011;9418;52.694;13.294;2023-02-11T01:06:45;41.23;;;29.50;;
18576;SDS011;9418;52.694;13.294;2023-02-11T01:09:11;50.57;;;31.50;;
18576;SDS011;9418;52.694;13.294;2023-02-11T01:11:38;45.23;;;28.57;;
18576;SDS011;9418;52.694;13.294;2023-02-11T01:14:05;44.70;;;30.50;;
18576;SDS011;9418;52.694;13.294;2023-02-11T01:16:32;48.87;;;29.70;;
18576;SDS011;9418;52.694;13.294;2023-02-11T01:18:59;43.60;;;29.43;;
18576;SDS011;9418;52.694;13.294;2023-02-11T01:21:25;49.70;;;31.20;;
18576;SDS011;9418;52.694;13.294;2023-02-11T01:23:52;42.33;;;29.90;;
18576;SDS011;9418;52.694;13.294;2023-02-11T01:26:19;48.63;;;30.23;;
18576;SDS011;9418;52.694;13.294;2023-02-11T01:28:45;46.30;;;30.63;;
18576;SDS011;9418;52.694;13.294;2023-02-11T01:31:12;45.17;;;30.00;;
18576;SDS011;9418;52.694;13.294;2023-02-11T01:33:40;45.40;;;31.17;;
18576;SDS011;9418;52.694;13.294;2023-02-11T01:36:07;44.67;;;30.23;;
18576;SDS011;9418;52.694;13.294;2023-02-11T01:38:35;40.63;;;27.97;;
18576;SDS011;9418;52.694;13.294;2023-02-11T01:41:03;45.63;;;29.50;;
18576;SDS011;9418;52.694;13.294;2023-02-11T01:43:32;47.77;;;30.23;;
18576;SDS011;9418;52.694;13.294;2023-02-11T01:46:11;51.23;;;30.20;;
18576;SDS011;9418;52.694;13.294;2023-02-11T01:48:46;43.27;;;30.37;;
18576;SDS011;9418;52.694;13.294;2023-02-11T01:51:20;47.83;;;30.30;;
18576;SDS011;9418;52.694;13.294;2023-02-11T01:53:49;42.37;;;30.53;;
18576;SDS011;9418;52.694;13.294;2023-02-11T01:56:35;51.70;;;30.00;;
18576;SDS011;9418;52.694;13.294;2023-02-11T01:59:23;43.77;;;30.47;;
18576;SDS011;9418;52.694;13.294;2023-02-11T02:01:55;41.20;;;29.03;;
18576;SDS011;9418;52.694;13.294;2023-02-11T02:04:26;39.83;;;28.70;;
18576;SDS011;9418;52.694;13.294;2023-02-11T02:06:58;45.13;;;29.93;;
18576;SDS011;9418;52.694;13.294;2023-02-11T02:09:28;50.00;;;29.07;;
18576;SDS011;9418;52.694;13.294;2023-02-11T02:12:00;42.57;;;28.90;;
18576;SDS011;9418;52.694;13.294;2023-02-11T02:14:27;45.50;;;30.87;;
18576;SDS011;9418;52.694;13.294;2023-02-11T02:16:53;48.63;;;29.30;;
18576;SDS011;9418;52.694;13.294;2023-02-11T02:19:29;44.40;;;29.67;;
18576;SDS011;9418;52.694;13.294;2023-02-11T02:25:11;42.37;;;30.30;;
18576;SDS011;9418;52.694;13.294;2023-02-11T02:27:51;48.30;;;31.10;;
18576;SDS011;9418;52.694;13.294;2023-02-11T02:30:34;40.40;;;27.80;;
18576;SDS011;9418;52.694;13.294;2023-02-11T02:33:33;34.47;;;25.93;;
18576;SDS011;9418;52.694;13.294;2023-02-11T02:36:08;48.33;;;28.10;;
18576;SDS011;9418;52.694;13.294;2023-02-11T02:38:43;44.07;;;31.20;;
18576;SDS011;9418;52.694;13.294;2023-02-11T02:41:16;41.43;;;29.67;;
18576;SDS011;9418;52.694;13.294;2023-02-11T02:43:47;55.87;;;28.47;;
18576;SDS011;9418;52.694;13.294;2023-02-11T02:46:15;44.40;;;28.63;;
18576;SDS011;9418;52.694;13.294;2023-02-11T02:48:52;50.77;;;30.40;;
18576;SDS011;9418;52.694;13.294;2023-02-11T02:51:24;42.20;;;30.20;;
18576;SDS011;9418;52.694;13.294;2023-02-11T02:54:20;41.90;;;28.97;;
18576;SDS011;9418;52.694;13.294;2023-02-11T02:57:03;45.00;;;28.90;;
18576;SDS011;9418;52.694;13.294;2023-02-11T02:59:40;46.67;;;29.80;;
18576;SDS011;9418;52.694;13.294;2023-02-11T03:02:17;38.20;;;28.40;;
18576;SDS011;9418;52.694;13.294;2023-02-11T03:04:54;46.23;;;32.20;;
18576;SDS011;9418;52.694;13.294;2023-02-11T03:07:26;43.03;;;30.03;;
18576;SDS011;9418;52.694;13.294;2023-02-11T03:10:03;41.60;;;29.40;;
18576;SDS011;9418;52.694;13.294;2023-02-11T03:12:35;47.90;;;31.53;;
18576;SDS011;9418;52.694;13.294;2023-02-11T03:15:04;42.03;;;28.70;;
18576;SDS011;9418;52.694;13.294;2023-02-11T03:17:33;44.57;;;31.20;;
18576;SDS011;9418;52.694;13.294;2023-02-11T03:20:02;48.50;;;29.10;;
18576;SDS011;9418;52.694;13.294;2023-02-11T03:22:31;45.03;;;30.33;;
18576;SDS011;9418;52.694;13.294;2023-02-11T03:25:02;54.77;;;31.00;;
18576;SDS011;9418;52.694;13.294;2023-02-11T03:27:31;49.70;;;28.80;;
18576;SDS011;9418;52.694;13.294;2023-02-11T03:30:04;47.63;;;31.70;;
18576;SDS011;9418;52.694;13.294;2023-02-11T03:32:39;42.07;;;29.10;;
18576;SDS011;9418;52.694;13.294;2023-02-11T03:35:11;38.23;;;28.80;;
18576;SDS011;9418;52.694;13.294;2023-02-11T03:37:41;42.27;;;29.80;;
18576;SDS011;9418;52.694;13.294;2023-02-11T03:40:13;46.87;;;29.50;;
18576;SDS011;9418;52.694;13.294;2023-02-11T03:42:45;43.13;;;31.00;;
18576;SDS011;9418;52.694;13.294;2023-02-11T03:45:15;39.27;;;28.10;;
18576;SDS011;9418;52.694;13.294;2023-02-11T03:47:45;43.70;;;28.37;;
18576;SDS011;9418;52.694;13.294;2023-02-11T03:50:17;41.70;;;29.53;;
18576;SDS011;9418;52.694;13.294;2023-02-11T03:52:45;47.60;;;33.30;;
18576;SDS011;9418;52.694;13.294;2023-02-11T03:55:14;46.90;;;30.13;;
18576;SDS011;9418;52.694;13.294;2023-02-11T03:57:43;45.73;;;30.23;;
18576;SDS011;9418;52.694;13.294;2023-02-11T04:00:10;46.07;;;31.40;;
18576;SDS011;9418;52.694;13.294;2023-02-11T04:02:38;44.97;;;30.03;;
18576;SDS011;9418;52.694;13.294;2023-02-11T04:05:06;43.53;;;29.60;;
18576;SDS011;9418;52.694;13.294;2023-02-11T04:07:35;42.73;;;29.97;;
18576;SDS011;9418;52.694;13.294;2023-02-11T04:10:02;47.10;;;30.20;;
18576;SDS011;9418;52.694;13.294;2023-02-11T04:12:29;42.30;;;30.20;;
18576;SDS011;9418;52.694;13.294;2023-02-11T04:14:56;41.00;;;32.40;;
18576;SDS011;9418;52.694;13.294;2023-02-11T04:17:22;46.60;;;31.87;;
18576;SDS011;9418;52.694;13.294;2023-02-11T04:19:49;50.03;;;31.97;;
18576;SDS011;9418;52.694;13.294;2023-02-11T04:22:15;50.53;;;33.17;;
18576;SDS011;9418;52.694;13.294;2023-02-11T04:24:43;40.60;;;29.50;;
18576;SDS011;9418;52.694;13.294;2023-02-11T04:27:10;41.70;;;30.43;;
18576;SDS011;9418;52.694;13.294;2023-02-11T04:29:36;41.77;;;29.40;;
18576;SDS011;9418;52.694;13.294;2023-02-11T04:32:03;40.13;;;29.90;;
18576;SDS011;9418;52.694;13.294;2023-02-11T04:34:29;47.80;;;30.40;;
18576;SDS011;9418;52.694;13.294;2023-02-11T04:36:56;39.77;;;29.70;;
18576;SDS011;9418;52.694;13.294;2023-02-11T04:39:23;45.00;;;31.20;;
18576;SDS011;9418;52.694;13.294;2023-02-11T04:41:50;49.30;;;31.27;;
18576;SDS011;9418;52.694;13.294;2023-02-11T04:44:17;45.70;;;30.90;;
18576;SDS011;9418;52.694;13.294;2023-02-11T04:46:44;41.90;;;31.87;;
18576;SDS011;9418;52.694;13.294;2023-02-11T04:49:10;63.53;;;33.87;;
18576;SDS011;9418;52.694;13.294;2023-02-11T04:51:38;41.60;;;30.27;;
18576;SDS011;9418;52.694;13.294;2023-02-11T04:54:05;50.53;;;32.50;;
18576;SDS011;9418;52.694;13.294;2023-02-11T04:56:31;44.33;;;32.73;;
18576;SDS011;9418;52.694;13.294;2023-02-11T04:58:59;45.60;;;32.50;;
18576;SDS011;9418;52.694;13.294;2023-02-11T05:01:26;44.00;;;30.77;;
18576;SDS011;9418;52.694;13.294;2023-02-11T05:03:52;50.60;;;33.67;;
18576;SDS011;9418;52.694;13.294;2023-02-11T05:06:19;46.73;;;33.40;;
18576;SDS011;9418;52.694;13.294;2023-02-11T05:08:46;49.27;;;32.47;;
18576;SDS011;9418;52.694;13.294;2023-02-11T05:11:13;51.47;;;34.00;;
18576;SDS011;9418;52.694;13.294;2023-02-11T05:13:41;48.97;;;32.97;;
18576;SDS011;9418;52.694;13.294;2023-02-11T05:16:09;47.53;;;34.10;;
18576;SDS011;9418;52.694;13.294;2023-02-11T05:18:36;52.00;;;33.97;;
18576;SDS011;9418;52.694;13.294;2023-02-11T05:21:04;51.07;;;34.57;;
18576;SDS011;9418;52.694;13.294;2023-02-11T05:23:31;47.77;;;33.77;;
18576;SDS011;9418;52.694;13.294;2023-02-11T05:25:58;47.93;;;33.47;;
18576;SDS011;9418;52.694;13.294;2023-02-11T05:28:24;48.57;;;34.50;;
18576;SDS011;9418;52.694;13.294;2023-02-11T05:30:51;45.60;;;30.97;;
18576;SDS011;9418;52.694;13.294;2023-02-11T05:33:19;50.23;;;34.87;;
18576;SDS011;9418;52.694;13.294;2023-02-11T05:35:45;47.50;;;34.90;;
18576;SDS011;9418;52.694;13.294;2023-02-11T05:38:12;47.50;;;33.17;;
18576;SDS011;9418;52.694;13.294;2023-02-11T05:40:39;49.40;;;33.90;;
18576;SDS011;9418;52.694;13.294;2023-02-11T05:43:05;53.00;;;35.80;;
18576;SDS011;9418;52.694;13.294;2023-02-11T05:45:32;48.77;;;33.80;;
18576;SDS011;9418;52.694;13.294;2023-02-11T05:47:59;50.33;;;34.93;;
18576;SDS011;9418;52.694;13.294;2023-02-11T05:50:27;56.17;;;34.57;;
18576;SDS011;9418;52.694;13.294;2023-02-11T05:52:53;49.33;;;34.10;;
18576;SDS011;9418;52.694;13.294;2023-02-11T05:55:20;46.27;;;32.00;;
18576;SDS011;9418;52.694;13.294;2023-02-11T05:57:46;46.33;;;34.00;;
18576;SDS011;9418;52.694;13.294;2023-02-11T06:00:13;45.60;;;34.70;;
18576;SDS011;9418;52.694;13.294;2023-02-11T06:02:40;52.37;;;35.33;;
18576;SDS011;9418;52.694;13.294;2023-02-11T06:05:07;56.53;;;35.53;;
18576;SDS011;9418;52.694;13.294;2023-02-11T06:07:35;48.73;;;33.87;;
18576;SDS011;9418;52.694;13.294;2023-02-11T06:10:02;48.23;;;32.27;;
18576;SDS011;9418;52.694;13.294;2023-02-11T06:12:28;46.37;;;34.87;;
18576;SDS011;9418;52.694;13.294;2023-02-11T06:14:55;49.27;;;33.77;;
18576;SDS011;9418;52.694;13.294;2023-02-11T06:17:21;50.27;;;36.83;;
18576;SDS011;9418;52.694;13.294;2023-02-11T06:19:49;46.60;;;33.23;;
18576;SDS011;9418;52.694;13.294;2023-02-11T06:22:16;56.07;;;36.17;;
18576;SDS011;9418;52.694;13.294;2023-02-11T06:24:43;46.80;;;34.30;;
18576;SDS011;9418;52.694;13.294;2023-02-11T06:27:10;48.10;;;35.03;;
18576;SDS011;9418;52.694;13.294;2023-02-11T06:29:37;46.07;;;33.50;;
18576;SDS011;9418;52.694;13.294;2023-02-11T06:32:03;49.00;;;34.87;;
18576;SDS011;9418;52.694;13.294;2023-02-11T06:34:30;44.63;;;32.77;;
18576;SDS011;9418;52.694;13.294;2023-02-11T06:36:56;50.90;;;33.57;;
18576;SDS011;9418;52.694;13.294;2023-02-11T06:39:23;56.57;;;35.70;;
18576;SDS011;9418;52.694;13.294;2023-02-11T06:41:51;50.20;;;36.00;;
18576;SDS011;9418;52.694;13.294;2023-02-11T06:44:17;50.83;;;34.70;;
18576;SDS011;9418;52.694;13.294;2023-02-11T06:46:44;49.67;;;35.27;;
18576;SDS011;9418;52.694;13.294;2023-02-11T06:49:10;53.90;;;35.80;;
18576;SDS011;9418;52.694;13.294;2023-02-11T06:51:37;55.30;;;36.03;;
18576;SDS011;9418;52.694;13.294;2023-02-11T06:54:04;53.30;;;34.97;;
18576;SDS011;9418;52.694;13.294;2023-02-11T06:56:31;48.33;;;33.90;;
18576;SDS011;9418;52.694;13.294;2023-02-11T06:59:00;48.83;;;33.87;;
18576;SDS011;9418;52.694;13.294;2023-02-11T07:01:27;52.13;;;36.60;;
18576;SDS011;9418;52.694;13.294;2023-02-11T07:03:53;51.67;;;35.90;;
18576;SDS011;9418;52.694;13.294;2023-02-11T07:06:21;49.23;;;34.90;;
18576;SDS011;9418;52.694;13.294;2023-02-11T07:08:51;54.37;;;36.67;;
18576;SDS011;9418;52.694;13.294;2023-02-11T07:11:18;54.63;;;36.00;;
18576;SDS011;9418;52.694;13.294;2023-02-11T07:13:48;54.60;;;36.60;;
18576;SDS011;9418;52.694;13.294;2023-02-11T07:16:17;51.00;;;37.00;;
18576;SDS011;9418;52.694;13.294;2023-02-11T07:18:44;49.00;;;35.73;;
18576;SDS011;9418;52.694;13.294;2023-02-11T07:21:13;51.73;;;36.43;;
18576;SDS011;9418;52.694;13.294;2023-02-11T07:23:41;50.60;;;35.30;;
18576;SDS011;9418;52.694;13.294;2023-02-11T07:26:09;56.43;;;36.73;;
18576;SDS011;9418;52.694;13.294;2023-02-11T07:28:37;59.40;;;37.80;;
18576;SDS011;9418;52.694;13.294;2023-02-11T07:31:05;52.70;;;36.38;;
18576;SDS011;9418;52.694;13.294;2023-02-11T07:33:33;54.97;;;35.90;;
18576;SDS011;9418;52.694;13.294;2023-02-11T07:36:01;60.00;;;37.57;;
18576;SDS011;9418;52.694;13.294;2023-02-11T07:38:28;52.47;;;36.67;;
18576;SDS011;9418;52.694;13.294;2023-02-11T07:40:58;60.67;;;39.10;;
18576;SDS011;9418;52.694;13.294;2023-02-11T07:43:25;63.33;;;36.83;;
18576;SDS011;9418;52.694;13.294;2023-02-11T07:45:51;54.07;;;36.07;;
18576;SDS011;9418;52.694;13.294;2023-02-11T07:48:18;52.43;;;36.17;;
18576;SDS011;9418;52.694;13.294;2023-02-11T07:50:46;57.03;;;38.23;;
18576;SDS011;9418;52.694;13.294;2023-02-11T07:53:12;56.73;;;36.47;;
18576;SDS011;9418;52.694;13.294;2023-02-11T07:55:39;61.83;;;37.30;;
18576;SDS011;9418;52.694;13.294;2023-02-11T07:58:07;56.43;;;35.37;;
18576;SDS011;9418;52.694;13.294;2023-02-11T08:00:33;53.67;;;35.90;;
18576;SDS011;9418;52.694;13.294;2023-02-11T08:03:00;55.10;;;35.80;;
18576;SDS011;9418;52.694;13.294;2023-02-11T08:05:27;66.27;;;36.50;;
18576;SDS011;9418;52.694;13.294;2023-02-11T08:07:55;64.03;;;39.87;;
18576;SDS011;9418;52.694;13.294;2023-02-11T08:10:22;63.10;;;39.70;;
18576;SDS011;9418;52.694;13.294;2023-02-11T08:12:48;59.10;;;36.20;;
18576;SDS011;9418;52.694;13.294;2023-02-11T08:15:15;60.90;;;36.13;;
18576;SDS011;9418;52.694;13.294;2023-02-11T08:17:42;83.67;;;55.80;;
18576;SDS011;9418;52.694;13.294;2023-02-11T08:20:09;63.37;;;37.90;;
18576;SDS011;9418;52.694;13.294;2023-02-11T08:22:35;58.70;;;37.10;;
18576;SDS011;9418;52.694;13.294;2023-02-11T08:25:04;56.53;;;35.70;;
18576;SDS011;9418;52.694;13.294;2023-02-11T08:27:31;64.40;;;37.10;;
18576;SDS011;9418;52.694;13.294;2023-02-11T08:29:58;51.30;;;35.57;;
18576;SDS011;9418;52.694;13.294;2023-02-11T08:32:26;57.87;;;38.00;;
18576;SDS011;9418;52.694;13.294;2023-02-11T08:34:52;54.93;;;34.90;;
18576;SDS011;9418;52.694;13.294;2023-02-11T08:37:19;56.03;;;35.43;;
18576;SDS011;9418;52.694;13.294;2023-02-11T08:39:46;60.40;;;35.90;;
18576;SDS011;9418;52.694;13.294;2023-02-11T08:42:14;57.47;;;34.93;;
18576;SDS011;9418;52.694;13.294;2023-02-11T08:44:41;51.50;;;34.80;;
18576;SDS011;9418;52.694;13.294;2023-02-11T08:47:08;62.40;;;38.70;;
18576;SDS011;9418;52.694;13.294;2023-02-11T08:49:35;60.77;;;35.60;;
18576;SDS011;9418;52.694;13.294;2023-02-11T08:52:01;73.03;;;39.87;;
18576;SDS011;9418;52.694;13.294;2023-02-11T08:54:28;59.23;;;38.73;;
18576;SDS011;9418;52.694;13.294;2023-02-11T08:56:55;64.47;;;36.90;;
18576;SDS011;9418;52.694;13.294;2023-02-11T08:59:23;62.83;;;37.20;;
18576;SDS011;9418;52.694;13.294;2023-02-11T09:01:50;54.00;;;35.20;;
18576;SDS011;9418;52.694;13.294;2023-02-11T09:04:16;57.57;;;35.93;;
18576;SDS011;9418;52.694;13.294;2023-02-11T09:06:43;64.20;;;37.60;;
18576;SDS011;9418;52.694;13.294;2023-02-11T09:09:10;66.63;;;37.37;;
18576;SDS011;9418;52.694;13.294;2023-02-11T09:11:38;55.57;;;36.40;;
18576;SDS011;9418;52.694;13.294;2023-02-11T09:14:06;54.33;;;33.77;;
18576;SDS011;9418;52.694;13.294;2023-02-11T09:16:34;57.00;;;34.03;;
18576;SDS011;9418;52.694;13.294;2023-02-11T09:19:02;54.33;;;35.07;;
18576;SDS011;9418;52.694;13.294;2023-02-11T09:21:29;51.63;;;32.43;;
18576;SDS011;9418;52.694;13.294;2023-02-11T09:23:56;53.20;;;33.33;;
18576;SDS011;9418;52.694;13.294;2023-02-11T09:26:24;64.87;;;34.10;;
18576;SDS011;9418;52.694;13.294;2023-02-11T09:28:51;52.40;;;33.00;;
18576;SDS011;9418;52.694;13.294;2023-02-11T09:31:19;56.53;;;30.90;;
18576;SDS011;9418;52.694;13.294;2023-02-11T09:33:49;47.17;;;30.40;;
18576;SDS011;9418;52.694;13.294;2023-02-11T09:36:18;60.30;;;34.33;;
18576;SDS011;9418;52.694;13.294;2023-02-11T09:38:46;50.63;;;31.57;;
18576;SDS011;9418;52.694;13.294;2023-02-11T09:41:16;51.80;;;32.13;;
18576;SDS011;9418;52.694;13.294;2023-02-11T09:43:58;51.20;;;31.10;;
18576;SDS011;9418;52.694;13.294;2023-02-11T09:46:29;55.00;;;33.10;;
18576;SDS011;9418;52.694;13.294;2023-02-11T09:48:59;59.67;;;31.70;;
18576;SDS011;9418;52.694;13.294;2023-02-11T09:51:30;46.83;;;30.57;;
18576;SDS011;9418;52.694;13.294;2023-02-11T09:54:03;51.77;;;29.47;;
18576;SDS011;9418;52.694;13.294;2023-02-11T09:56:36;50.17;;;29.80;;
18576;SDS011;9418;52.694;13.294;2023-02-11T09:59:03;46.37;;;29.17;;
18576;SDS011;9418;52.694;13.294;2023-02-11T10:01:32;48.33;;;28.87;;
18576;SDS011;9418;52.694;13.294;2023-02-11T10:04:06;48.53;;;28.77;;
18576;SDS011;9418;52.694;13.294;2023-02-11T10:06:42;41.93;;;28.33;;
18576;SDS011;9418;52.694;13.294;2023-02-11T10:09:20;44.30;;;28.93;;
18576;SDS011;9418;52.694;13.294;2023-02-11T10:15:05;52.73;;;26.80;;
18576;SDS011;9418;52.694;13.294;2023-02-11T10:17:41;44.10;;;26.13;;
18576;SDS011;9418;52.694;13.294;2023-02-11T10:20:22;41.37;;;27.13;;
18576;SDS011;9418;52.694;13.294;2023-02-11T10:22:56;50.27;;;27.53;;
18576;SDS011;9418;52.694;13.294;2023-02-11T10:25:25;45.30;;;26.20;;
18576;SDS011;9418;52.694;13.294;2023-02-11T10:27:55;51.90;;;26.17;;
18576;SDS011;9418;52.694;13.294;2023-02-11T10:30:25;43.60;;;26.67;;
18576;SDS011;9418;52.694;13.294;2023-02-11T10:32:58;35.60;;;25.13;;
18576;SDS011;9418;52.694;13.294;2023-02-11T10:35:28;36.17;;;25.43;;
18576;SDS011;9418;52.694;13.294;2023-02-11T10:37:56;41.23;;;26.40;;
18576;SDS011;9418;52.694;13.294;2023-02-11T10:40:25;38.33;;;25.43;;
18576;SDS011;9418;52.694;13.294;2023-02-11T10:42:53;50.20;;;27.20;;
18576;SDS011;9418;52.694;13.294;2023-02-11T10:45:24;38.87;;;24.70;;
18576;SDS011;9418;52.694;13.294;2023-02-11T10:47:54;38.03;;;26.53;;
18576;SDS011;9418;52.694;13.294;2023-02-11T10:50:22;49.27;;;26.07;;
18576;SDS011;9418;52.694;13.294;2023-02-11T10:52:51;43.97;;;24.67;;
18576;SDS011;9418;52.694;13.294;2023-02-11T10:55:18;35.43;;;24.30;;
18576;SDS011;9418;52.694;13.294;2023-02-11T10:57:50;49.30;;;25.20;;
18576;SDS011;9418;52.694;13.294;2023-02-11T11:03:04;35.10;;;23.60;;
18576;SDS011;9418;52.694;13.294;2023-02-11T11:05:44;37.87;;;23.30;;
18576;SDS011;9418;52.694;13.294;2023-02-11T11:08:13;35.33;;;24.27;;
18576;SDS011;9418;52.694;13.294;2023-02-11T11:10:43;38.20;;;24.50;;
18576;SDS011;9418;52.694;13.294;2023-02-11T11:16:08;34.43;;;21.63;;
18576;SDS011;9418;52.694;13.294;2023-02-11T11:18:42;32.00;;;21.20;;
18576;SDS011;9418;52.694;13.294;2023-02-11T11:21:11;32.00;;;20.40;;
18576;SDS011;9418;52.694;13.294;2023-02-11T11:23:45;36.27;;;21.00;;
18576;SDS011;9418;52.694;13.294;2023-02-11T11:26:15;36.93;;;22.40;;
18576;SDS011;9418;52.694;13.294;2023-02-11T11:28:49;34.67;;;22.07;;
18576;SDS011;9418;52.694;13.294;2023-02-11T11:31:19;26.37;;;18.97;;
18576;SDS011;9418;52.694;13.294;2023-02-11T11:33:50;27.37;;;19.47;;
18576;SDS011;9418;52.694;13.294;2023-02-11T11:36:19;29.40;;;20.60;;
18576;SDS011;9418;52.694;13.294;2023-02-11T11:38:49;30.80;;;20.07;;
18576;SDS011;9418;52.694;13.294;2023-02-11T11:41:20;35.97;;;19.37;;
18576;SDS011;9418;52.694;13.294;2023-02-11T11:43:53;26.20;;;18.07;;
18576;SDS011;9418;52.694;13.294;2023-02-11T11:46:42;24.30;;;16.73;;
18576;SDS011;9418;52.694;13.294;2023-02-11T11:49:12;30.60;;;18.63;;
18576;SDS011;9418;52.694;13.294;2023-02-11T11:51:50;30.37;;;17.90;;
18576;SDS011;9418;52.694;13.294;2023-02-11T11:54:22;27.33;;;16.47;;
18576;SDS011;9418;52.694;13.294;2023-02-11T11:56:53;27.10;;;18.03;;
18576;SDS011;9418;52.694;13.294;2023-02-11T11:59:25;25.77;;;17.47;;
18576;SDS011;9418;52.694;13.294;2023-02-11T12:01:58;29.97;;;16.00;;
18576;SDS011;9418;52.694;13.294;2023-02-11T12:04:40;30.93;;;17.70;;
18576;SDS011;9418;52.694;13.294;2023-02-11T12:07:17;23.90;;;17.87;;
18576;SDS011;9418;52.694;13.294;2023-02-11T12:12:47;22.50;;;15.70;;
18576;SDS011;9418;52.694;13.294;2023-02-11T12:15:24;24.80;;;16.30;;
18576;SDS011;9418;52.694;13.294;2023-02-11T12:17:59;25.10;;;15.90;;
18576;SDS011;9418;52.694;13.294;2023-02-11T12:20:44;17.73;;;15.03;;
18576;SDS011;9418;52.694;13.294;2023-02-11T12:23:31;30.30;;;17.57;;
18576;SDS011;9418;52.694;13.294;2023-02-11T12:26:10;20.70;;;14.53;;
18576;SDS011;9418;52.694;13.294;2023-02-11T12:28:41;23.40;;;13.67;;
18576;SDS011;9418;52.694;13.294;2023-02-11T12:31:20;26.53;;;15.03;;
18576;SDS011;9418;52.694;13.294;2023-02-11T12:34:00;18.97;;;14.57;;
18576;SDS011;9418;52.694;13.294;2023-02-11T12:36:49;21.93;;;14.50;;
18576;SDS011;9418;52.694;13.294;2023-02-11T12:39:27;24.40;;;14.93;;
18576;SDS011;9418;52.694;13.294;2023-02-11T12:45:24;26.33;;;15.47;;
18576;SDS011;9418;52.694;13.294;2023-02-11T12:48:03;25.57;;;15.10;;
18576;SDS011;9418;52.694;13.294;2023-02-11T12:50:41;23.73;;;14.73;;
18576;SDS011;9418;52.694;13.294;2023-02-11T12:53:18;15.90;;;12.80;;
18576;SDS011;9418;52.694;13.294;2023-02-11T12:55:57;19.83;;;14.40;;
18576;SDS011;9418;52.694;13.294;2023-02-11T12:58:32;20.53;;;13.63;;
18576;SDS011;9418;52.694;13.294;2023-02-11T13:01:01;26.60;;;14.40;;
18576;SDS011;9418;52.694;13.294;2023-02-11T13:03:34;21.97;;;15.23;;
18576;SDS011;9418;52.694;13.294;2023-02-11T13:06:04;21.63;;;14.60;;
18576;SDS011;9418;52.694;13.294;2023-02-11T13:08:34;22.17;;;14.43;;
18576;SDS011;9418;52.694;13.294;2023-02-11T13:11:06;19.27;;;13.70;;
18576;SDS011;9418;52.694;13.294;2023-02-11T13:13:38;15.93;;;13.60;;
18576;SDS011;9418;52.694;13.294;2023-02-11T13:16:14;17.60;;;13.70;;
18576;SDS011;9418;52.694;13.294;2023-02-11T13:18:48;20.17;;;14.00;;
18576;SDS011;9418;52.694;13.294;2023-02-11T13:21:26;18.93;;;13.37;;
18576;SDS011;9418;52.694;13.294;2023-02-11T13:24:21;19.17;;;14.10;;
18576;SDS011;9418;52.694;13.294;2023-02-11T13:26:54;19.43;;;13.10;;
18576;SDS011;9418;52.694;13.294;2023-02-11T13:29:30;17.67;;;13.67;;
18576;SDS011;9418;52.694;13.294;2023-02-11T13:32:07;24.67;;;13.57;;
18576;SDS011;9418;52.694;13.294;2023-02-11T13:37:23;18.80;;;12.57;;
18576;SDS011;9418;52.694;13.294;2023-02-11T13:39:55;16.67;;;13.73;;
18576;SDS011;9418;52.694;13.294;2023-02-11T13:42:23;18.37;;;13.37;;
18576;SDS011;9418;52.694;13.294;2023-02-11T13:44:51;20.23;;;14.30;;
18576;SDS011;9418;52.694;13.294;2023-02-11T13:47:23;20.07;;;13.70;;
18576;SDS011;9418;52.694;13.294;2023-02-11T13:49:52;17.20;;;12.73;;
18576;SDS011;9418;52.694;13.294;2023-02-11T13:52:21;18.77;;;13.70;;
18576;SDS011;9418;52.694;13.294;2023-02-11T13:54:51;17.63;;;13.07;;
18576;SDS011;9418;52.694;13.294;2023-02-11T13:57:32;18.13;;;12.93;;
18576;SDS011;9418;52.694;13.294;2023-02-11T14:00:06;17.47;;;12.90;;
18576;SDS011;9418;52.694;13.294;2023-02-11T14:03:16;17.13;;;12.17;;
18576;SDS011;9418;52.694;13.294;2023-02-11T14:06:11;15.77;;;14.13;;
18576;SDS011;9418;52.694;13.294;2023-02-11T14:08:59;20.00;;;13.53;;
18576;SDS011;9418;52.694;13.294;2023-02-11T14:11:46;17.60;;;13.27;;
18576;SDS011;9418;52.694;13.294;2023-02-11T14:14:19;19.97;;;13.53;;
18576;SDS011;9418;52.694;13.294;2023-02-11T14:19:56;24.63;;;16.90;;
18576;SDS011;9418;52.694;13.294;2023-02-11T14:22:24;20.50;;;16.73;;
18576;SDS011;9418;52.694;13.294;2023-02-11T14:24:54;29.87;;;18.27;;
18576;SDS011;9418;52.694;13.294;2023-02-11T14:27:24;22.77;;;15.07;;
18576;SDS011;9418;52.694;13.294;2023-02-11T14:30:02;24.77;;;17.67;;
18576;SDS011;9418;52.694;13.294;2023-02-11T14:32:55;15.90;;;12.73;;
18576;SDS011;9418;52.694;13.294;2023-02-11T14:35:49;22.37;;;14.77;;
18576;SDS011;9418;52.694;13.294;2023-02-11T14:38:25;16.63;;;13.20;;
18576;SDS011;9418;52.694;13.294;2023-02-11T14:41:04;16.20;;;13.50;;
18576;SDS011;9418;52.694;13.294;2023-02-11T14:43:35;17.77;;;15.00;;
18576;SDS011;9418;52.694;13.294;2023-02-11T14:46:05;27.03;;;20.30;;
18576;SDS011;9418;52.694;13.294;2023-02-11T14:48:34;17.60;;;14.60;;
18576;SDS011;9418;52.694;13.294;2023-02-11T14:51:05;15.00;;;12.90;;
18576;SDS011;9418;52.694;13.294;2023-02-11T14:53:34;16.47;;;13.07;;
18576;SDS011;9418;52.694;13.294;2023-02-11T14:56:03;15.70;;;11.70;;
18576;SDS011;9418;52.694;13.294;2023-02-11T14:58:44;15.03;;;11.17;;
18576;SDS011;9418;52.694;13.294;2023-02-11T15:01:21;12.50;;;11.20;;
18576;SDS011;9418;52.694;13.294;2023-02-11T15:03:53;10.97;;;9.83;;